createdAt,value
2022-09-12T00:00:11.059Z,19.84
2022-09-12T00:02:37.617Z,19.81
2022-09-12T00:05:04.444Z,19.78
2022-09-12T00:07:30.916Z,19.79
2022-09-12T00:09:57.629Z,19.75
2022-09-12T00:12:24.114Z,19.73
2022-09-12T00:14:51.193Z,19.71
2022-09-12T00:17:17.652Z,19.68
2022-09-12T00:19:44.112Z,19.68
2022-09-12T00:22:10.570Z,19.64
2022-09-12T00:24:37.046Z,19.61
2022-09-12T00:27:03.593Z,19.58
2022-09-12T00:29:30.123Z,19.56
2022-09-12T00:31:56.610Z,19.54
2022-09-12T00:34:23.129Z,19.52
2022-09-12T00:36:50.007Z,19.50
2022-09-12T00:39:17.226Z,19.48
2022-09-12T00:41:44.424Z,19.47
2022-09-12T00:44:10.837Z,19.45
2022-09-12T00:46:37.306Z,19.45
2022-09-12T00:49:15.634Z,19.43
2022-09-12T00:51:47.435Z,19.40
2022-09-12T00:54:21.365Z,19.39
2022-09-12T00:56:50.361Z,19.37
2022-09-12T00:59:25.195Z,19.33
2022-09-12T01:01:52.635Z,19.32
2022-09-12T01:04:23.557Z,19.27
2022-09-12T01:06:51.958Z,19.26
2022-09-12T01:09:21.879Z,19.24
2022-09-12T01:11:50.226Z,19.21
2022-09-12T01:14:18.349Z,19.21
2022-09-12T01:16:45.889Z,19.20
2022-09-12T01:19:36.849Z,19.15
2022-09-12T01:22:33.986Z,19.15
2022-09-12T01:25:20.723Z,19.13
2022-09-12T01:28:07.392Z,19.12
2022-09-12T01:30:45.891Z,19.08
2022-09-12T01:33:18.931Z,19.09
2022-09-12T01:36:04.167Z,19.10
2022-09-12T01:38:46.927Z,19.02
2022-09-12T01:41:28.556Z,18.96
2022-09-12T01:44:01.732Z,18.95
2022-09-12T01:46:34.268Z,18.91
2022-09-12T01:49:09.205Z,18.90
2022-09-12T01:52:00.572Z,18.87
2022-09-12T01:54:42.194Z,18.85
2022-09-12T01:57:21.272Z,18.86
2022-09-12T01:59:53.211Z,18.86
2022-09-12T02:02:26.663Z,18.86
2022-09-12T02:05:02.056Z,18.84
2022-09-12T02:07:40.469Z,18.84
2022-09-12T02:10:15.015Z,18.82
2022-09-12T02:13:09.152Z,18.80
2022-09-12T02:15:45.004Z,18.80
2022-09-12T02:18:14.572Z,18.79
2022-09-12T02:20:48.567Z,18.77
2022-09-12T02:23:29.137Z,18.71
2022-09-12T02:26:00.457Z,18.73
2022-09-12T02:28:33.524Z,18.72
2022-09-12T02:31:15.370Z,18.67
2022-09-12T02:33:57.464Z,18.66
2022-09-12T02:36:40.335Z,18.68
2022-09-12T02:39:07.017Z,18.68
2022-09-12T02:41:33.682Z,18.67
2022-09-12T02:44:00.515Z,18.66
2022-09-12T02:46:36.879Z,18.64
2022-09-12T02:49:03.739Z,18.64
2022-09-12T02:51:30.586Z,18.62
2022-09-12T02:53:57.462Z,18.61
2022-09-12T02:56:28.289Z,18.59
2022-09-12T02:58:58.640Z,18.58
2022-09-12T03:01:43.882Z,18.55
2022-09-12T03:07:16.872Z,18.53
2022-09-12T03:10:05.594Z,18.51
2022-09-12T03:12:53.026Z,18.50
2022-09-12T03:15:35.372Z,18.50
2022-09-12T03:18:32.163Z,18.46
2022-09-12T03:21:08.611Z,18.48
2022-09-12T03:23:43.728Z,18.46
2022-09-12T03:26:21.074Z,18.42
2022-09-12T03:28:49.467Z,18.44
2022-09-12T03:31:18.341Z,18.41
2022-09-12T03:33:45.600Z,18.42
2022-09-12T03:36:26.589Z,18.37
2022-09-12T03:38:53.231Z,18.41
2022-09-12T03:41:19.947Z,18.40
2022-09-12T03:43:47.088Z,18.40
2022-09-12T03:46:14.132Z,18.38
2022-09-12T03:48:41.381Z,18.36
2022-09-12T03:51:10.454Z,18.35
2022-09-12T03:53:37.181Z,18.35
2022-09-12T03:56:08.897Z,18.32
2022-09-12T03:58:36.366Z,18.32
2022-09-12T04:01:13.837Z,18.30
2022-09-12T04:03:41.713Z,18.33
2022-09-12T04:06:10.771Z,18.33
2022-09-12T04:08:38.207Z,18.31
2022-09-12T04:11:06.928Z,18.31
2022-09-12T04:13:35.303Z,18.30
2022-09-12T04:16:02.523Z,18.30
2022-09-12T04:18:29.084Z,18.28
2022-09-12T04:20:55.556Z,18.27
2022-09-12T04:23:22.629Z,18.26
2022-09-12T04:25:56.556Z,18.22
2022-09-12T04:28:23.808Z,18.24
2022-09-12T04:30:51.020Z,18.23
2022-09-12T04:33:18.020Z,18.22
2022-09-12T04:35:45.441Z,18.20
2022-09-12T04:38:12.307Z,18.20
2022-09-12T04:40:38.766Z,18.20
2022-09-12T04:43:08.438Z,18.19
2022-09-12T04:45:37.855Z,18.18
2022-09-12T04:48:04.474Z,18.19
2022-09-12T04:50:31.095Z,18.18
2022-09-12T04:52:57.635Z,18.18
2022-09-12T04:55:25.519Z,18.17
2022-09-12T04:57:53.022Z,18.17
2022-09-12T05:00:20.562Z,18.17
2022-09-12T05:02:47.207Z,18.17
2022-09-12T05:05:13.661Z,18.17
2022-09-12T05:07:40.571Z,18.18
2022-09-12T05:10:07.657Z,18.19
2022-09-12T05:12:34.430Z,18.18
2022-09-12T05:15:00.953Z,18.20
2022-09-12T05:17:29.588Z,18.19
2022-09-12T05:19:56.068Z,18.21
2022-09-12T05:22:22.884Z,18.24
2022-09-12T05:24:50.657Z,18.24
2022-09-12T05:27:17.555Z,18.24
2022-09-12T05:29:44.073Z,18.24
2022-09-12T05:32:12.456Z,18.24
2022-09-12T05:34:40.176Z,18.24
2022-09-12T05:37:06.733Z,18.28
2022-09-12T05:39:33.178Z,18.30
2022-09-12T05:41:59.718Z,18.33
2022-09-12T05:44:26.732Z,18.35
2022-09-12T05:46:53.702Z,18.41
2022-09-12T05:49:21.500Z,18.44
2022-09-12T05:51:48.295Z,18.49
2022-09-12T05:54:18.727Z,18.55
2022-09-12T05:56:45.700Z,18.59
2022-09-12T05:59:13.730Z,18.63
2022-09-12T06:01:40.969Z,18.68
2022-09-12T06:04:08.335Z,18.74
2022-09-12T06:06:41.792Z,18.79
2022-09-12T06:09:09.301Z,18.85
2022-09-12T06:11:37.848Z,18.92
2022-09-12T06:14:05.174Z,18.98
2022-09-12T06:16:33.872Z,19.04
2022-09-12T06:19:12.921Z,19.10
2022-09-12T06:21:39.962Z,19.21
2022-09-12T06:24:07.602Z,19.30
2022-09-12T06:26:34.335Z,19.37
2022-09-12T06:29:01.770Z,19.42
2022-09-12T06:31:31.644Z,19.49
2022-09-12T06:34:01.715Z,19.56
2022-09-12T06:36:31.291Z,19.63
2022-09-12T06:39:00.926Z,19.70
2022-09-12T06:41:28.541Z,19.80
2022-09-12T06:43:55.659Z,19.88
2022-09-12T06:46:22.513Z,19.97
2022-09-12T06:48:49.407Z,20.06
2022-09-12T06:51:18.356Z,20.15
2022-09-12T06:53:45.908Z,20.25
2022-09-12T06:56:19.227Z,20.36
2022-09-12T06:58:47.641Z,20.47
2022-09-12T07:01:18.685Z,20.60
2022-09-12T07:03:56.480Z,20.74
2022-09-12T07:06:29.757Z,20.87
2022-09-12T07:08:58.472Z,20.99
2022-09-12T07:11:27.356Z,21.11
2022-09-12T07:13:56.235Z,21.22
2022-09-12T07:16:23.613Z,21.35
2022-09-12T07:18:52.416Z,21.46
2022-09-12T07:21:19.439Z,21.60
2022-09-12T07:23:46.240Z,21.71
2022-09-12T07:26:14.557Z,21.80
2022-09-12T07:28:41.200Z,21.92
2022-09-12T07:31:12.898Z,22.01
2022-09-12T07:33:41.266Z,22.14
2022-09-12T07:36:11.614Z,22.26
2022-09-12T07:38:42.354Z,22.42
2022-09-12T07:41:20.862Z,22.61
2022-09-12T07:43:47.671Z,22.87
2022-09-12T07:46:14.939Z,23.19
2022-09-12T07:48:41.585Z,23.45
2022-09-12T07:51:10.238Z,23.71
2022-09-12T07:53:39.699Z,23.97
2022-09-12T07:56:08.115Z,24.22
2022-09-12T07:58:36.600Z,24.45
2022-09-12T08:01:08.848Z,24.65
2022-09-12T08:03:39.616Z,24.84
2022-09-12T08:06:11.725Z,24.92
2022-09-12T08:08:38.762Z,24.95
2022-09-12T08:11:08.152Z,24.95
2022-09-12T08:13:36.922Z,24.93
2022-09-12T08:16:07.054Z,24.91
2022-09-12T08:18:35.659Z,24.88
2022-09-12T08:21:03.743Z,24.87
2022-09-12T08:23:30.453Z,24.90
2022-09-12T08:26:05.341Z,24.87
2022-09-12T08:28:35.013Z,24.83
2022-09-12T08:31:07.045Z,24.82
2022-09-12T08:33:34.443Z,24.82
2022-09-12T08:36:08.338Z,24.82
2022-09-12T08:38:35.966Z,24.84
2022-09-12T08:41:21.330Z,24.84
2022-09-12T08:44:12.954Z,24.87
2022-09-12T08:47:05.433Z,24.94
2022-09-12T08:49:42.524Z,25.02
2022-09-12T08:52:18.133Z,25.08
2022-09-12T08:54:47.962Z,25.16
2022-09-12T08:57:15.666Z,25.21
2022-09-12T08:59:46.487Z,25.26
2022-09-12T09:02:45.888Z,25.29
2022-09-12T09:05:28.269Z,25.35
2022-09-12T09:08:17.458Z,25.41
2022-09-12T09:10:49.899Z,25.47
2022-09-12T09:14:06.567Z,25.49
2022-09-12T09:16:43.216Z,25.56
2022-09-12T09:19:17.462Z,25.63
2022-09-12T09:22:03.374Z,25.70
2022-09-12T09:24:43.836Z,25.73
2022-09-12T09:27:39.476Z,25.83
2022-09-12T09:30:15.424Z,25.92
2022-09-12T09:32:43.617Z,26.03
2022-09-12T09:35:40.476Z,26.09
2022-09-12T09:38:26.816Z,26.19
2022-09-12T09:41:12.099Z,26.32
2022-09-12T09:43:38.921Z,26.42
2022-09-12T09:46:05.747Z,26.50
2022-09-12T09:48:35.855Z,26.60
2022-09-12T09:51:05.498Z,26.70
2022-09-12T09:53:51.824Z,26.77
2022-09-12T09:56:53.786Z,26.90
2022-09-12T09:59:27.500Z,27.04
2022-09-12T10:02:24.354Z,27.09
2022-09-12T10:04:57.450Z,27.18
2022-09-12T10:07:25.912Z,27.24
2022-09-12T10:10:11.065Z,27.29
2022-09-12T10:12:37.640Z,27.39
2022-09-12T10:15:23.612Z,27.41
2022-09-12T10:17:51.291Z,27.51
2022-09-12T10:20:36.152Z,27.60
2022-09-12T10:23:15.580Z,27.71
2022-09-12T10:25:47.795Z,27.82
2022-09-12T10:28:35.985Z,27.89
2022-09-12T10:31:02.947Z,27.98
2022-09-12T10:33:29.959Z,28.05
2022-09-12T10:35:57.118Z,28.07
2022-09-12T10:38:27.294Z,28.08
2022-09-12T10:41:09.394Z,28.08
2022-09-12T10:43:40.712Z,28.13
2022-09-12T10:46:19.426Z,28.14
2022-09-12T10:48:48.036Z,28.20
2022-09-12T10:51:23.588Z,28.20
2022-09-12T10:53:52.192Z,28.24
2022-09-12T10:56:24.260Z,28.28
2022-09-12T10:58:56.940Z,28.31
2022-09-12T11:01:44.906Z,28.32
2022-09-12T11:04:42.108Z,28.37
2022-09-12T11:07:37.949Z,28.41
2022-09-12T11:10:44.447Z,28.36
2022-09-12T11:13:14.048Z,28.36
2022-09-12T11:15:47.190Z,28.40
2022-09-12T11:18:33.093Z,28.44
2022-09-12T11:21:23.970Z,28.44
2022-09-12T11:24:18.380Z,28.45
2022-09-12T11:27:00.745Z,28.48
2022-09-12T11:29:36.389Z,28.50
2022-09-12T11:32:09.474Z,28.55
2022-09-12T11:34:59.740Z,28.55
2022-09-12T11:37:26.150Z,28.65
2022-09-12T11:39:55.791Z,28.71
2022-09-12T11:42:30.183Z,28.76
2022-09-12T11:45:13.457Z,28.82
2022-09-12T11:47:41.911Z,28.92
2022-09-12T11:50:17.951Z,28.99
2022-09-12T11:52:44.566Z,29.10
2022-09-12T11:55:23.185Z,29.12
2022-09-12T11:57:54.153Z,29.16
2022-09-12T12:00:22.413Z,29.21
2022-09-12T12:03:03.120Z,29.21
2022-09-12T12:05:44.769Z,29.23
2022-09-12T12:08:12.301Z,29.23
2022-09-12T12:10:47.732Z,29.23
2022-09-12T12:13:20.343Z,29.26
2022-09-12T12:16:15.700Z,29.30
2022-09-12T12:18:43.689Z,29.39
2022-09-12T12:21:31.917Z,29.42
2022-09-12T12:24:07.417Z,29.52
2022-09-12T12:26:40.005Z,29.54
2022-09-12T12:29:33.611Z,29.49
2022-09-12T12:32:02.622Z,29.45
2022-09-12T12:34:40.967Z,29.39
2022-09-12T12:37:19.463Z,29.41
2022-09-12T12:39:47.722Z,29.48
2022-09-12T12:42:32.746Z,29.44
2022-09-12T12:45:04.292Z,29.47
2022-09-12T12:47:42.828Z,29.45
2022-09-12T12:50:31.191Z,29.47
2022-09-12T12:53:04.927Z,29.52
2022-09-12T12:55:43.826Z,29.52
2022-09-12T12:58:34.626Z,29.56
2022-09-12T13:01:18.805Z,29.62
2022-09-12T13:03:58.800Z,29.69
2022-09-12T13:06:37.836Z,29.74
2022-09-12T13:09:09.339Z,29.82
2022-09-12T13:11:38.966Z,29.87
2022-09-12T13:14:37.502Z,29.87
2022-09-12T13:17:14.366Z,29.96
2022-09-12T13:19:41.260Z,30.01
2022-09-12T13:22:10.052Z,30.01
2022-09-12T13:24:44.693Z,30.03
2022-09-12T13:27:23.058Z,30.05
2022-09-12T13:29:49.514Z,30.14
2022-09-12T13:32:17.981Z,30.20
2022-09-12T13:35:11.110Z,30.23
2022-09-12T13:38:13.165Z,30.28
2022-09-12T13:41:09.032Z,30.22
2022-09-12T13:43:42.505Z,30.24
2022-09-12T13:46:16.142Z,30.25
2022-09-12T13:48:43.699Z,30.27
2022-09-12T13:51:23.066Z,30.27
2022-09-12T13:53:50.952Z,30.31
2022-09-12T13:56:18.954Z,30.33
2022-09-12T13:58:57.535Z,30.31
2022-09-12T14:01:42.067Z,30.32
2022-09-12T14:04:39.661Z,30.36
2022-09-12T14:07:19.611Z,30.37
2022-09-12T14:09:53.397Z,30.39
2022-09-12T14:12:27.020Z,30.38
2022-09-12T14:14:53.685Z,30.39
2022-09-12T14:17:33.596Z,30.36
2022-09-12T14:20:03.950Z,30.38
2022-09-12T14:22:32.442Z,30.38
2022-09-12T14:24:59.578Z,30.37
2022-09-12T14:27:30.196Z,30.34
2022-09-12T14:30:09.002Z,30.31
2022-09-12T14:32:36.259Z,30.33
2022-09-12T14:35:20.063Z,30.29
2022-09-12T14:37:51.548Z,30.27
2022-09-12T14:40:23.632Z,30.27
2022-09-12T14:42:53.056Z,30.27
2022-09-12T14:45:27.663Z,30.23
2022-09-12T14:47:54.871Z,30.24
2022-09-12T14:50:27.681Z,30.20
2022-09-12T14:53:23.088Z,30.18
2022-09-12T14:56:07.123Z,30.20
2022-09-12T14:58:33.780Z,30.25
2022-09-12T15:01:01.953Z,30.25
2022-09-12T15:03:36.403Z,30.26
2022-09-12T15:06:05.655Z,30.28
2022-09-12T15:08:32.491Z,30.29
2022-09-12T15:11:00.290Z,30.29
2022-09-12T15:13:28.547Z,30.27
2022-09-12T15:15:57.672Z,30.30
2022-09-12T15:18:26.643Z,30.34
2022-09-12T15:21:00.854Z,30.34
2022-09-12T15:23:47.145Z,30.33
2022-09-12T15:26:16.531Z,30.36
2022-09-12T15:28:43.747Z,30.39
2022-09-12T15:31:33.529Z,30.40
2022-09-12T15:34:01.821Z,30.42
2022-09-12T15:36:29.028Z,30.43
2022-09-12T15:38:56.173Z,30.43
2022-09-12T15:41:30.965Z,30.39
2022-09-12T15:43:58.917Z,30.43
2022-09-12T15:46:25.554Z,30.44
2022-09-12T15:48:52.109Z,30.46
2022-09-12T15:51:20.928Z,30.48
2022-09-12T15:53:49.668Z,30.49
2022-09-12T15:56:21.272Z,30.50
2022-09-12T15:58:58.163Z,30.50
2022-09-12T16:01:26.058Z,30.50
2022-09-12T16:03:52.687Z,30.49
2022-09-12T16:06:19.224Z,30.46
2022-09-12T16:08:45.828Z,30.42
2022-09-12T16:11:19.643Z,30.38
2022-09-12T16:13:46.197Z,30.37
2022-09-12T16:16:12.710Z,30.35
2022-09-12T16:18:40.265Z,30.31
2022-09-12T16:21:09.072Z,30.30
2022-09-12T16:23:39.471Z,30.27
2022-09-12T16:26:06.610Z,30.24
2022-09-12T16:28:33.662Z,30.21
2022-09-12T16:31:02.234Z,30.18
2022-09-12T16:33:30.264Z,30.14
2022-09-12T16:36:12.943Z,30.08
2022-09-12T16:38:43.170Z,30.04
2022-09-12T16:41:10.330Z,30.02
2022-09-12T16:43:37.456Z,29.95
2022-09-12T16:46:05.797Z,29.90
2022-09-12T16:48:33.633Z,29.89
2022-09-12T16:51:02.048Z,29.89
2022-09-12T16:53:31.913Z,29.85
2022-09-12T16:55:58.442Z,29.84
2022-09-12T16:58:25.251Z,29.77
2022-09-12T17:01:05.015Z,29.67
2022-09-12T17:03:32.098Z,29.67
2022-09-12T17:06:25.378Z,29.57
2022-09-12T17:08:54.761Z,29.57
2022-09-12T17:11:23.581Z,29.54
2022-09-12T17:14:04.407Z,29.48
2022-09-12T17:16:36.759Z,29.44
2022-09-12T17:19:04.178Z,29.38
2022-09-12T17:21:30.772Z,29.34
2022-09-12T17:23:57.340Z,29.27
2022-09-12T17:26:23.821Z,29.25
2022-09-12T17:28:50.561Z,29.19
2022-09-12T17:31:17.219Z,29.15
2022-09-12T17:33:44.049Z,29.09
2022-09-12T17:36:16.722Z,29.03
2022-09-12T17:38:45.058Z,29.00
2022-09-12T17:41:16.030Z,28.92
2022-09-12T17:43:46.428Z,28.86
2022-09-12T17:46:14.101Z,28.81
2022-09-12T17:48:41.677Z,28.73
2022-09-12T17:51:13.497Z,28.64
2022-09-12T17:53:41.257Z,28.52
2022-09-12T17:56:08.198Z,28.42
2022-09-12T17:58:35.571Z,28.32
2022-09-12T18:01:32.627Z,28.19
2022-09-12T18:04:00.769Z,28.12
2022-09-12T18:06:28.950Z,28.02
2022-09-12T18:08:56.142Z,27.92
2022-09-12T18:11:22.694Z,27.81
2022-09-12T18:13:49.314Z,27.73
2022-09-12T18:16:16.205Z,27.62
2022-09-12T18:18:42.864Z,27.51
2022-09-12T18:21:11.556Z,27.41
2022-09-12T18:23:38.494Z,27.32
2022-09-12T18:26:10.719Z,27.20
2022-09-12T18:28:41.275Z,27.12
2022-09-12T18:31:14.366Z,27.01
2022-09-12T18:33:41.495Z,26.95
2022-09-12T18:36:10.185Z,26.85
2022-09-12T18:38:37.176Z,26.78
2022-09-12T18:41:12.883Z,26.68
2022-09-12T18:43:39.817Z,26.61
2022-09-12T18:46:12.316Z,26.53
2022-09-12T18:48:39.224Z,26.46
2022-09-12T18:51:20.331Z,26.34
2022-09-12T18:53:56.252Z,26.26
2022-09-12T18:56:28.713Z,26.20
2022-09-12T18:58:56.876Z,26.14
2022-09-12T19:01:28.713Z,26.08
2022-09-12T19:03:56.166Z,26.02
2022-09-12T19:06:26.008Z,25.95
2022-09-12T19:08:54.018Z,25.87
2022-09-12T19:11:21.805Z,25.80
2022-09-12T19:13:50.421Z,25.75
2022-09-12T19:16:19.634Z,25.68
2022-09-12T19:18:49.533Z,25.62
2022-09-12T19:21:18.652Z,25.56
2022-09-12T19:23:46.326Z,25.51
2022-09-12T19:26:14.260Z,25.46
2022-09-12T19:28:41.000Z,25.41
2022-09-12T19:31:10.760Z,25.36
2022-09-12T19:33:38.049Z,25.32
2022-09-12T19:36:17.529Z,25.26
2022-09-12T19:38:54.392Z,25.24
2022-09-12T19:41:21.000Z,25.18
2022-09-12T19:43:47.795Z,25.17
2022-09-12T19:46:19.492Z,25.11
2022-09-12T19:48:46.832Z,25.09
2022-09-12T19:51:14.814Z,25.07
2022-09-12T19:53:42.247Z,25.03
2022-09-12T19:56:10.523Z,25.00
2022-09-12T19:58:39.600Z,24.96
2022-09-12T20:01:11.723Z,24.94
2022-09-12T20:03:39.076Z,24.94
2022-09-12T20:06:10.098Z,24.91
2022-09-12T20:08:38.081Z,24.91
2022-09-12T20:11:04.672Z,24.90
2022-09-12T20:13:31.195Z,24.88
2022-09-12T20:16:06.032Z,24.84
2022-09-12T20:18:32.563Z,24.86
2022-09-12T20:20:59.033Z,24.85
2022-09-12T20:23:25.482Z,24.83
2022-09-12T20:25:51.969Z,24.82
2022-09-12T20:28:18.407Z,24.80
2022-09-12T20:30:44.898Z,24.79
2022-09-12T20:33:11.370Z,24.76
2022-09-12T20:35:37.955Z,24.74
2022-09-12T20:38:04.480Z,24.71
2022-09-12T20:40:30.978Z,24.71
2022-09-12T20:42:57.463Z,24.68
2022-09-12T20:45:23.944Z,24.66
2022-09-12T20:47:50.398Z,24.66
2022-09-12T20:50:16.904Z,24.65
2022-09-12T20:52:43.442Z,24.64
2022-09-12T20:55:10.260Z,24.62
2022-09-12T20:57:36.790Z,24.61
2022-09-12T21:00:03.805Z,24.61
2022-09-12T21:02:30.348Z,24.58
2022-09-12T21:04:57.721Z,24.57
2022-09-12T21:07:24.181Z,24.57
2022-09-12T21:09:50.654Z,24.56
2022-09-12T21:12:17.121Z,24.53
2022-09-12T21:14:43.606Z,24.51
2022-09-12T21:17:10.058Z,24.51
2022-09-12T21:19:36.576Z,24.50
2022-09-12T21:22:03.062Z,24.48
2022-09-12T21:24:29.641Z,24.47
2022-09-12T21:26:56.869Z,24.45
2022-09-12T21:29:25.736Z,24.44
2022-09-12T21:31:52.228Z,24.42
2022-09-12T21:34:18.739Z,24.39
2022-09-12T21:36:45.207Z,24.36
2022-09-12T21:39:11.681Z,24.35
2022-09-12T21:41:38.222Z,24.32
2022-09-12T21:44:04.756Z,24.30
2022-09-12T21:46:31.293Z,24.31
2022-09-12T21:48:57.823Z,24.30
2022-09-12T21:51:24.322Z,24.29
2022-09-12T21:53:50.801Z,24.28
2022-09-12T21:56:17.565Z,24.28
2022-09-12T21:58:44.070Z,24.28
2022-09-12T22:01:11.192Z,24.28
2022-09-12T22:03:37.804Z,24.27
2022-09-12T22:06:06.026Z,24.25
2022-09-12T22:08:34.415Z,24.24
2022-09-12T22:11:03.020Z,24.24
2022-09-12T22:13:32.365Z,24.25
2022-09-12T22:16:03.142Z,24.28
2022-09-12T22:18:32.170Z,24.25
2022-09-12T22:20:59.304Z,24.24
2022-09-12T22:23:44.377Z,24.25
2022-09-12T22:26:11.027Z,24.22
2022-09-12T22:28:38.376Z,24.19
2022-09-12T22:31:06.573Z,24.16
2022-09-12T22:33:33.151Z,24.13
2022-09-12T22:35:59.721Z,24.11
2022-09-12T22:38:26.261Z,24.10
2022-09-12T22:40:52.836Z,24.08
2022-09-12T22:43:19.321Z,24.06
2022-09-12T22:45:45.786Z,24.03
2022-09-12T22:48:12.450Z,24.03
2022-09-12T22:50:38.942Z,24.00
2022-09-12T22:53:05.454Z,23.99
2022-09-12T22:55:31.934Z,23.97
2022-09-12T22:57:58.392Z,23.95
2022-09-12T23:00:27.725Z,23.93
2022-09-12T23:02:54.504Z,23.90
2022-09-12T23:05:21.397Z,23.89
2022-09-12T23:07:48.619Z,23.86
2022-09-12T23:10:15.864Z,23.86
2022-09-12T23:12:42.350Z,23.83
2022-09-12T23:15:10.161Z,23.82
2022-09-12T23:17:36.871Z,23.80
2022-09-12T23:20:04.794Z,23.78
2022-09-12T23:22:31.287Z,23.78
2022-09-12T23:24:57.737Z,23.77
2022-09-12T23:27:27.383Z,23.74
2022-09-12T23:29:53.971Z,23.76
2022-09-12T23:32:23.455Z,23.76
2022-09-12T23:34:49.936Z,23.77
2022-09-12T23:37:16.420Z,23.78
2022-09-12T23:39:42.890Z,23.80
2022-09-12T23:42:09.456Z,23.83
2022-09-12T23:44:35.927Z,23.89
2022-09-12T23:47:03.184Z,23.94
2022-09-12T23:49:30.159Z,24.00
2022-09-12T23:51:56.678Z,24.05
2022-09-12T23:54:23.504Z,24.10
2022-09-12T23:56:49.973Z,24.17
2022-09-12T23:59:16.434Z,24.22
